Time;durP1;ratioP1;P1;durP2;ratioP2;P2;SDS_P1;SDS_P2;PMS_P1;PMS_P2;Temp;Humidity;BMP_temperature;BMP_pressure;BME280_temperature;BME280_humidity;BME280_pressure;Samples;Min_cycle;Max_cycle;Signal;HPM_P1;HPM_P2
2022/09/01 00:02:15;;;;;;;3.33;1.75;;;15.90;99.90;;;;;;5064610;28;20051;-74
2022/09/01 00:04:43;;;;;;;4.90;1.80;;;15.80;99.90;;;;;;5049147;28;20049;-74
2022/09/01 00:07:10;;;;;;;3.88;1.80;;;15.80;99.90;;;;;;5066238;28;20102;-73
2022/09/01 00:09:36;;;;;;;4.78;1.70;;;15.80;99.90;;;;;;5047243;28;20390;-73
2022/09/01 00:12:05;;;;;;;4.70;1.70;;;15.80;99.90;;;;;;5065245;28;20166;-74
2022/09/01 00:14:35;;;;;;;4.78;1.88;;;15.80;99.90;;;;;;5066093;28;20507;-73
2022/09/01 00:17:04;;;;;;;3.40;1.70;;;15.70;99.90;;;;;;5063954;28;20072;-73
2022/09/01 00:19:32;;;;;;;3.45;1.88;;;15.70;99.90;;;;;;5057613;28;20483;-74
2022/09/01 00:21:57;;;;;;;3.25;1.73;;;15.70;99.90;;;;;;5045883;28;20204;-73
2022/09/01 00:24:24;;;;;;;3.63;1.90;;;15.70;99.90;;;;;;5065286;28;20052;-72
2022/09/01 00:26:50;;;;;;;3.28;1.90;;;15.70;99.90;;;;;;5056230;28;20086;-73
2022/09/01 00:29:17;;;;;;;4.97;2.00;;;15.60;99.90;;;;;;5062106;28;20040;-74
2022/09/01 00:31:43;;;;;;;3.45;1.70;;;15.60;99.90;;;;;;5069158;28;20131;-74
2022/09/01 00:34:08;;;;;;;2.88;1.70;;;15.60;99.90;;;;;;5071137;28;20135;-74
2022/09/01 00:36:34;;;;;;;4.13;1.60;;;15.60;99.90;;;;;;5067237;28;20048;-73
2022/09/01 00:39:01;;;;;;;3.90;1.63;;;15.50;99.90;;;;;;5047954;28;20045;-73
2022/09/01 00:41:30;;;;;;;4.10;1.77;;;15.50;99.90;;;;;;5068992;28;20047;-74
2022/09/01 00:44:04;;;;;;;5.38;1.90;;;15.50;99.90;;;;;;5066288;28;20040;-74
2022/09/01 00:46:38;;;;;;;2.75;1.70;;;15.50;99.90;;;;;;5068247;28;20028;-74
2022/09/01 00:49:20;;;;;;;5.35;1.85;;;15.50;99.90;;;;;;5069210;28;20100;-74
2022/09/01 00:51:52;;;;;;;2.38;1.60;;;15.40;99.90;;;;;;5049480;28;20051;-73
2022/09/01 00:54:23;;;;;;;2.65;1.70;;;15.40;99.90;;;;;;5050514;28;20141;-74
2022/09/01 00:56:49;;;;;;;2.20;1.60;;;15.40;99.90;;;;;;5067434;28;20471;-74
2022/09/01 00:59:17;;;;;;;3.47;1.85;;;15.30;99.90;;;;;;5048060;28;20060;-74
2022/09/01 01:01:43;;;;;;;;;;;15.30;99.90;;;;;;5051055;28;20137;-74
2022/09/01 01:04:15;;;;;;;4.47;1.50;;;15.20;99.90;;;;;;5066960;28;20390;-74
2022/09/01 01:06:48;;;;;;;5.03;1.50;;;15.20;99.90;;;;;;5066670;28;20185;-73
2022/09/01 01:09:19;;;;;;;4.28;2.05;;;15.20;99.90;;;;;;5069080;28;20080;-73
2022/09/01 01:11:46;;;;;;;3.22;1.98;;;15.10;99.90;;;;;;5068093;28;20040;-74
2022/09/01 01:14:15;;;;;;;2.45;1.70;;;15.10;99.90;;;;;;5067709;28;20055;-74
2022/09/01 01:16:44;;;;;;;3.28;1.77;;;15.10;99.90;;;;;;5065688;28;20052;-74
2022/09/01 01:24:55;;;;;;;5.85;1.90;;;15.00;99.90;;;;;;5057675;28;20115;-74
2022/09/01 01:27:21;;;;;;;4.47;2.00;;;15.00;99.90;;;;;;5065695;28;20146;-74
2022/09/01 01:29:49;;;;;;;4.07;1.92;;;15.00;99.90;;;;;;5067318;28;20032;-74
2022/09/01 01:32:14;;;;;;;;;;;15.00;99.90;;;;;;5069198;28;20115;-74
2022/09/01 01:34:44;;;;;;;5.03;1.90;;;15.00;99.90;;;;;;5039771;28;20022;-73
2022/09/01 01:37:12;;;;;;;1.90;1.60;;;14.90;99.90;;;;;;5065996;28;20167;-74
2022/09/01 01:39:41;;;;;;;3.47;1.67;;;14.90;99.90;;;;;;5067776;28;20045;-73
2022/09/01 01:42:08;;;;;;;3.35;1.95;;;14.90;99.90;;;;;;5066464;28;20045;-73
2022/09/01 01:44:37;;;;;;;3.57;1.90;;;14.90;99.90;;;;;;5068299;28;20040;-73
2022/09/01 01:47:07;;;;;;;5.93;1.95;;;14.90;99.90;;;;;;5044510;28;20317;-73
2022/09/01 01:49:34;;;;;;;4.68;1.77;;;14.90;99.90;;;;;;5065721;28;20044;-73
2022/09/01 01:52:00;;;;;;;3.25;1.95;;;14.90;99.90;;;;;;5066550;28;20040;-74
2022/09/01 01:54:30;;;;;;;3.67;1.70;;;14.90;99.90;;;;;;5066448;28;20424;-73
2022/09/01 01:56:57;;;;;;;4.25;1.58;;;14.80;99.90;;;;;;5066175;28;20055;-74
2022/09/01 01:59:23;;;;;;;2.70;1.67;;;14.80;99.90;;;;;;5067276;28;20076;-74
2022/09/01 02:01:50;;;;;;;3.65;1.73;;;14.80;99.90;;;;;;5045905;28;20072;-74
2022/09/01 02:04:18;;;;;;;2.58;1.58;;;14.80;99.90;;;;;;5068734;28;20509;-74
2022/09/01 02:06:46;;;;;;;2.33;1.63;;;14.70;99.90;;;;;;5048191;28;20052;-74
2022/09/01 02:09:14;;;;;;;3.35;2.00;;;14.70;99.90;;;;;;5066051;28;20045;-74
2022/09/01 02:11:40;;;;;;;4.00;1.70;;;14.70;99.90;;;;;;5064853;28;20123;-74
2022/09/01 02:14:07;;;;;;;6.88;2.00;;;14.70;99.90;;;;;;5066761;28;20041;-73
2022/09/01 02:16:34;;;;;;;2.25;1.48;;;14.70;99.90;;;;;;5040089;28;20967;-73
2022/09/01 02:19:02;;;;;;;3.75;1.80;;;14.70;99.90;;;;;;5070171;28;20120;-74
2022/09/01 02:21:28;;;;;;;3.47;2.08;;;14.70;99.90;;;;;;5064541;28;20479;-74
2022/09/01 02:24:00;;;;;;;4.93;2.15;;;14.70;99.90;;;;;;5065170;28;20058;-74
2022/09/01 02:26:30;;;;;;;6.20;2.00;;;14.70;99.90;;;;;;5067806;28;20425;-74
2022/09/01 02:29:03;;;;;;;3.70;1.80;;;14.70;99.90;;;;;;5065171;28;20445;-74
2022/09/01 02:31:30;;;;;;;3.08;1.73;;;14.50;99.90;;;;;;5048533;28;20076;-74
2022/09/01 02:33:56;;;;;;;;;;;14.60;99.90;;;;;;5048823;28;20074;-73
2022/09/01 02:36:24;;;;;;;4.15;1.88;;;14.50;99.90;;;;;;5064681;28;20370;-74
2022/09/01 02:38:50;;;;;;;;;;;14.50;99.90;;;;;;5063999;28;20044;-74
2022/09/01 02:41:19;;;;;;;3.60;1.88;;;14.50;99.90;;;;;;5063592;28;20371;-74
2022/09/01 02:43:45;;;;;;;3.22;1.75;;;14.50;99.90;;;;;;5051777;28;20505;-74
2022/09/01 02:46:12;;;;;;;3.20;1.70;;;14.50;99.90;;;;;;5066682;28;20047;-74
2022/09/01 02:48:40;;;;;;;2.20;1.90;;;14.50;99.90;;;;;;5049648;28;20064;-74
2022/09/01 02:51:10;;;;;;;2.40;1.70;;;14.40;99.90;;;;;;5064962;28;20136;-74
2022/09/01 02:53:38;;;;;;;3.97;1.92;;;14.40;99.90;;;;;;5045867;28;20063;-74
2022/09/01 02:56:08;;;;;;;2.30;1.88;;;14.30;99.90;;;;;;5044285;28;20053;-74
2022/09/01 02:58:39;;;;;;;4.80;2.10;;;14.30;99.90;;;;;;5067167;28;20083;-74
2022/09/01 03:01:23;;;;;;;4.25;1.98;;;14.30;99.90;;;;;;5054534;28;20032;-74
2022/09/01 03:03:50;;;;;;;4.00;1.80;;;14.20;99.90;;;;;;5067349;28;20499;-74
2022/09/01 03:06:22;;;;;;;;;;;14.20;99.90;;;;;;5049581;28;20070;-73
2022/09/01 03:08:50;;;;;;;3.55;1.98;;;14.20;99.90;;;;;;5060173;28;20001;-75
2022/09/01 03:11:16;;;;;;;2.78;1.95;;;14.20;99.90;;;;;;5068534;28;20045;-74
2022/09/01 03:13:42;;;;;;;3.92;2.08;;;14.20;99.90;;;;;;5067155;28;20387;-74
2022/09/01 03:16:09;;;;;;;6.03;2.10;;;14.10;99.90;;;;;;5046683;28;20303;-74
2022/09/01 03:18:36;;;;;;;3.50;1.92;;;14.20;99.90;;;;;;5064327;28;20082;-74
2022/09/01 03:21:02;;;;;;;4.87;2.10;;;14.20;99.90;;;;;;5064372;28;20044;-74
2022/09/01 03:23:30;;;;;;;2.97;2.00;;;14.20;99.90;;;;;;5046331;28;20053;-74
2022/09/01 03:25:56;;;;;;;5.18;2.30;;;14.10;99.90;;;;;;5068697;28;20036;-74
2022/09/01 03:28:22;;;;;;;2.75;2.00;;;14.10;99.90;;;;;;5061187;28;20048;-74
2022/09/01 03:30:52;;;;;;;3.50;1.85;;;14.10;99.90;;;;;;5066218;28;20047;-75
2022/09/01 03:33:20;;;;;;;4.43;2.05;;;14.10;99.90;;;;;;5059946;28;20286;-75
2022/09/01 03:35:47;;;;;;;2.92;1.70;;;14.10;99.90;;;;;;5047015;28;20055;-75
2022/09/01 03:38:20;;;;;;;3.00;1.92;;;14.10;99.90;;;;;;5067757;28;20089;-75
2022/09/01 03:40:48;;;;;;;3.28;2.10;;;14.10;99.90;;;;;;5062800;28;20068;-74
2022/09/01 03:43:15;;;;;;;3.47;2.10;;;14.10;99.90;;;;;;5048379;28;20055;-74
2022/09/01 03:45:42;;;;;;;4.22;2.10;;;14.10;99.90;;;;;;5068797;28;20051;-74
2022/09/01 03:48:08;;;;;;;5.28;2.10;;;14.10;99.90;;;;;;5048580;28;20542;-74
2022/09/01 03:50:45;;;;;;;2.70;2.08;;;14.10;99.90;;;;;;5062785;28;20033;-74
2022/09/01 03:53:16;;;;;;;3.00;2.13;;;14.10;99.90;;;;;;5066022;28;20059;-74
2022/09/01 03:55:45;;;;;;;2.13;1.90;;;14.10;99.90;;;;;;5046166;28;20041;-73
2022/09/01 03:58:13;;;;;;;4.22;1.90;;;14.10;99.90;;;;;;5063226;28;20209;-75
2022/09/01 04:00:41;;;;;;;4.45;1.90;;;14.10;99.90;;;;;;5048217;28;20041;-75
2022/09/01 04:03:10;;;;;;;4.32;2.35;;;14.20;99.90;;;;;;5065766;28;20116;-75
2022/09/01 04:05:37;;;;;;;3.47;2.17;;;14.20;99.90;;;;;;5046628;28;20127;-75
2022/09/01 04:08:08;;;;;;;3.65;2.03;;;14.20;99.90;;;;;;5068712;28;20449;-72
2022/09/01 04:10:37;;;;;;;4.75;2.03;;;14.10;99.90;;;;;;5052860;28;20671;-74
2022/09/01 04:13:04;;;;;;;2.50;2.03;;;14.20;99.90;;;;;;5068375;28;20044;-73
2022/09/01 04:15:32;;;;;;;2.88;2.00;;;14.20;99.90;;;;;;5067901;28;20037;-74
2022/09/01 04:18:08;;;;;;;3.00;1.75;;;14.20;99.90;;;;;;5071194;28;20044;-73
2022/09/01 04:20:48;;;;;;;3.05;1.90;;;14.10;99.90;;;;;;5065237;28;20851;-74
2022/09/01 04:23:25;;;;;;;3.72;2.10;;;14.20;99.90;;;;;;5061901;28;20044;-75
2022/09/01 04:25:58;;;;;;;5.22;2.08;;;14.10;99.90;;;;;;5068538;28;20380;-75
2022/09/01 04:28:29;;;;;;;2.63;1.90;;;14.10;99.90;;;;;;5047909;28;20056;-74
2022/09/01 04:30:57;;;;;;;2.95;2.10;;;14.10;99.90;;;;;;5049240;28;20032;-74
2022/09/01 04:33:24;;;;;;;;;;;14.10;99.90;;;;;;5071098;28;20080;-74
2022/09/01 04:35:53;;;;;;;;;;;14.00;99.90;;;;;;5070934;28;19920;-74
2022/09/01 04:38:20;;;;;;;2.42;2.22;;;14.00;99.90;;;;;;5070019;28;19924;-74
2022/09/01 04:40:48;;;;;;;3.70;2.30;;;13.90;99.90;;;;;;5065668;28;20120;-75
2022/09/01 04:43:13;;;;;;;2.90;1.98;;;14.00;99.90;;;;;;5069082;28;20098;-75
2022/09/01 04:45:39;;;;;;;3.65;2.05;;;13.90;99.90;;;;;;5068342;28;20483;-75
2022/09/01 04:48:05;;;;;;;3.60;2.00;;;13.90;99.90;;;;;;5065759;28;20123;-74
2022/09/01 04:50:33;;;;;;;3.55;1.85;;;13.90;99.90;;;;;;5045217;28;20091;-74
2022/09/01 04:53:00;;;;;;;4.70;2.95;;;13.90;99.90;;;;;;5070711;28;20057;-74
2022/09/01 04:55:28;;;;;;;4.32;2.30;;;13.80;99.90;;;;;;5069727;28;20456;-74
2022/09/01 04:57:56;;;;;;;3.42;2.40;;;13.80;99.90;;;;;;5069317;28;20040;-73
2022/09/01 05:00:23;;;;;;;4.63;2.30;;;13.90;99.90;;;;;;5050807;28;20049;-74
2022/09/01 05:02:52;;;;;;;;;;;13.80;99.90;;;;;;5069548;28;20041;-74
2022/09/01 05:05:22;;;;;;;5.13;2.70;;;13.80;99.90;;;;;;5066484;28;19931;-74
2022/09/01 05:07:51;;;;;;;3.63;2.22;;;13.80;99.90;;;;;;5075412;28;20052;-74
2022/09/01 05:10:18;;;;;;;4.88;2.60;;;13.80;99.90;;;;;;5069242;28;20139;-74
2022/09/01 05:12:44;;;;;;;4.87;2.30;;;13.80;99.90;;;;;;5072557;28;20044;-74
2022/09/01 05:15:12;;;;;;;5.30;2.17;;;13.80;99.90;;;;;;5065596;28;20410;-74
2022/09/01 05:17:38;;;;;;;4.38;2.33;;;13.80;99.90;;;;;;5065318;28;20082;-74
2022/09/01 05:20:05;;;;;;;5.35;2.53;;;13.80;99.90;;;;;;5066573;28;20076;-74
2022/09/01 05:22:31;;;;;;;5.18;2.40;;;13.80;99.90;;;;;;5050956;28;20036;-73
2022/09/01 05:25:12;;;;;;;4.25;2.45;;;13.80;99.90;;;;;;5068769;28;20048;-74
2022/09/01 05:27:40;;;;;;;4.88;2.75;;;13.80;99.90;;;;;;5067662;28;20063;-73
2022/09/01 05:30:07;;;;;;;4.57;2.42;;;13.80;99.90;;;;;;5044743;28;20051;-73
2022/09/01 05:32:36;;;;;;;6.80;2.60;;;13.80;99.90;;;;;;5064930;28;20049;-74
2022/09/01 05:35:07;;;;;;;5.38;2.33;;;13.90;99.90;;;;;;5042608;28;20089;-74
2022/09/01 05:37:36;;;;;;;4.85;2.20;;;13.90;99.90;;;;;;5068053;28;20044;-74
2022/09/01 05:40:03;;;;;;;3.15;2.15;;;13.90;99.90;;;;;;5043657;28;20071;-73
2022/09/01 05:42:29;;;;;;;3.45;2.42;;;13.90;99.90;;;;;;5068814;28;20048;-73
2022/09/01 05:44:55;;;;;;;4.35;2.08;;;13.90;99.90;;;;;;5042251;28;20064;-71
2022/09/01 05:47:25;;;;;;;7.32;2.58;;;14.00;99.90;;;;;;5050738;28;20309;-72
2022/09/01 05:49:52;;;;;;;10.27;2.63;;;14.10;99.90;;;;;;5046816;28;20098;-72
2022/09/01 05:52:25;;;;;;;;;;;14.10;99.90;;;;;;5048427;28;20045;-72
2022/09/01 05:54:51;;;;;;;11.63;3.08;;;14.10;99.90;;;;;;5065091;28;20010;-74
2022/09/01 05:57:18;;;;;;;8.05;2.75;;;14.20;99.90;;;;;;5049291;28;20045;-74
2022/09/01 05:59:47;;;;;;;4.43;2.15;;;14.20;99.90;;;;;;5051487;28;20048;-74
2022/09/01 06:02:14;;;;;;;4.13;2.63;;;14.30;99.90;;;;;;5064105;28;20062;-76
2022/09/01 06:04:40;;;;;;;8.23;2.80;;;14.30;99.90;;;;;;5064418;28;20430;-73
2022/09/01 06:07:16;;;;;;;6.60;2.60;;;14.40;99.90;;;;;;5048883;28;20430;-74
2022/09/01 06:09:48;;;;;;;6.03;2.60;;;14.50;99.90;;;;;;5063253;28;20040;-75
2022/09/01 06:12:19;;;;;;;6.18;2.97;;;14.60;99.90;;;;;;5066798;28;20106;-74
2022/09/01 06:14:51;;;;;;;4.00;2.47;;;14.60;99.90;;;;;;5047683;28;20049;-74
2022/09/01 06:17:23;;;;;;;7.78;3.08;;;14.70;99.90;;;;;;5041723;28;20102;-74
2022/09/01 06:19:58;;;;;;;6.20;2.50;;;14.70;99.90;;;;;;5047687;28;20132;-74
2022/09/01 06:22:26;;;;;;;6.05;2.50;;;14.80;99.90;;;;;;5048406;28;20048;-74
2022/09/01 06:24:53;;;;;;;5.65;2.85;;;14.80;99.90;;;;;;5065323;28;20123;-74
2022/09/01 06:27:20;;;;;;;9.00;2.87;;;14.90;99.90;;;;;;5061652;28;20045;-74
2022/09/01 06:29:56;;;;;;;4.07;2.90;;;14.90;99.90;;;;;;5044684;28;20330;-74
2022/09/01 06:32:30;;;;;;;5.70;2.53;;;14.90;99.90;;;;;;5061579;28;20066;-73
2022/09/01 06:34:59;;;;;;;5.03;2.78;;;15.00;99.90;;;;;;5039533;28;20396;-74
2022/09/01 06:37:27;;;;;;;4.72;2.50;;;15.10;99.90;;;;;;5042842;28;20080;-74
2022/09/01 06:39:53;;;;;;;4.75;2.67;;;15.20;99.90;;;;;;5047969;28;20064;-73
2022/09/01 06:42:19;;;;;;;4.80;2.47;;;15.20;99.90;;;;;;5065128;28;20045;-74
2022/09/01 06:44:46;;;;;;;4.55;2.65;;;15.40;99.90;;;;;;5066613;28;20048;-74
2022/09/01 06:47:14;;;;;;;5.95;2.40;;;15.30;99.90;;;;;;5066295;28;20120;-74
2022/09/01 06:49:40;;;;;;;3.25;2.50;;;15.50;99.90;;;;;;5066266;28;20152;-75
2022/09/01 06:52:06;;;;;;;5.30;2.50;;;15.50;99.90;;;;;;5046644;28;20499;-74
2022/09/01 06:54:33;;;;;;;5.20;2.53;;;15.60;99.90;;;;;;5064414;28;20043;-75
2022/09/01 06:57:02;;;;;;;7.10;2.78;;;15.70;99.90;;;;;;5062488;28;20121;-74
2022/09/01 06:59:30;;;;;;;7.30;2.45;;;15.80;99.90;;;;;;5063817;28;20178;-75
2022/09/01 07:02:00;;;;;;;6.93;2.60;;;15.80;99.90;;;;;;5064470;28;20109;-75
2022/09/01 07:04:30;;;;;;;5.43;2.75;;;15.90;99.90;;;;;;5055433;28;20123;-79
2022/09/01 07:06:56;;;;;;;5.90;2.63;;;15.90;99.90;;;;;;5063850;28;20060;-76
2022/09/01 07:09:25;;;;;;;5.45;2.63;;;16.00;99.90;;;;;;5045526;28;20044;-78
2022/09/01 07:11:52;;;;;;;9.40;2.40;;;16.10;99.90;;;;;;5066627;28;20032;-79
2022/09/01 07:14:18;;;;;;;7.50;2.65;;;16.20;99.90;;;;;;5060118;28;20045;-78
2022/09/01 07:16:45;;;;;;;6.32;2.35;;;16.20;99.90;;;;;;5066636;28;21104;-77
2022/09/01 07:19:13;;;;;;;5.70;2.38;;;16.30;99.90;;;;;;5065528;28;20498;-80
2022/09/01 07:21:43;;;;;;;6.68;2.50;;;16.40;99.90;;;;;;5070300;28;20052;-79
2022/09/01 07:24:10;;;;;;;7.40;2.08;;;16.40;99.90;;;;;;5068647;28;20131;-79
2022/09/01 07:26:36;;;;;;;5.97;2.45;;;16.50;99.90;;;;;;5069230;28;20055;-79
2022/09/01 07:29:04;;;;;;;4.88;2.15;;;16.60;99.90;;;;;;5067585;28;20045;-79
2022/09/01 07:31:35;;;;;;;3.92;2.10;;;16.60;99.90;;;;;;5068150;28;20166;-79
2022/09/01 07:34:09;;;;;;;5.72;2.00;;;16.70;99.90;;;;;;5058889;28;20099;-79
2022/09/01 07:36:36;;;;;;;5.32;2.03;;;16.80;99.90;;;;;;5036973;28;20506;-79
2022/09/01 07:39:02;;;;;;;6.28;2.22;;;16.90;99.90;;;;;;5057505;28;20102;-78
2022/09/01 07:41:28;;;;;;;4.68;1.77;;;16.90;99.90;;;;;;5045266;28;20039;-77
2022/09/01 07:43:55;;;;;;;4.97;1.92;;;17.00;99.90;;;;;;5047380;28;20419;-79
2022/09/01 07:46:24;;;;;;;5.28;2.10;;;17.10;99.90;;;;;;5065900;28;20036;-78
2022/09/01 07:48:52;;;;;;;6.30;1.85;;;17.20;99.90;;;;;;5049904;28;20110;-79
2022/09/01 07:51:19;;;;;;;3.30;1.55;;;17.30;99.90;;;;;;5046409;28;20044;-80
2022/09/01 07:53:47;;;;;;;;;;;17.30;99.90;;;;;;5066148;28;20554;-78
2022/09/01 07:56:19;;;;;;;3.92;1.65;;;17.40;99.90;;;;;;5067553;28;19974;-79
2022/09/01 07:58:46;;;;;;;6.07;1.75;;;17.40;99.90;;;;;;5048412;28;20070;-77
2022/09/01 08:01:16;;;;;;;7.00;1.90;;;17.50;99.90;;;;;;5059280;28;20488;-78
2022/09/01 08:03:51;;;;;;;2.95;1.48;;;17.60;99.90;;;;;;5050409;28;20106;-79
2022/09/01 08:06:20;;;;;;;5.35;1.90;;;17.70;99.90;;;;;;5048520;28;20049;-80
2022/09/01 08:08:50;;;;;;;6.97;1.85;;;17.80;99.90;;;;;;5066401;28;20032;-79
2022/09/01 08:11:19;;;;;;;3.90;1.42;;;17.90;99.90;;;;;;5049847;28;20037;-80
2022/09/01 08:13:46;;;;;;;4.95;1.70;;;18.00;99.90;;;;;;5064584;28;20036;-78
2022/09/01 08:16:13;;;;;;;4.70;1.30;;;18.10;99.90;;;;;;5066840;28;20518;-79
2022/09/01 08:18:39;;;;;;;5.55;1.50;;;18.20;99.90;;;;;;5066017;28;20091;-79
2022/09/01 08:21:10;;;;;;;6.50;1.60;;;18.20;99.90;;;;;;5067226;28;20050;-79
2022/09/01 08:23:36;;;;;;;4.05;1.55;;;18.30;99.90;;;;;;5042306;28;20041;-76
2022/09/01 08:26:11;;;;;;;3.40;1.30;;;18.40;99.90;;;;;;5063123;28;20050;-76
2022/09/01 08:28:38;;;;;;;3.13;1.45;;;18.50;99.90;;;;;;5064508;28;20059;-77
2022/09/01 08:31:12;;;;;;;4.20;1.40;;;18.60;99.90;;;;;;5052320;28;20391;-78
2022/09/01 08:33:41;;;;;;;4.57;1.50;;;18.60;99.90;;;;;;5070985;28;20052;-77
2022/09/01 08:36:09;;;;;;;4.30;1.50;;;18.70;99.90;;;;;;5051470;28;20057;-75
2022/09/01 08:38:35;;;;;;;3.83;1.25;;;18.80;99.90;;;;;;5057247;28;20499;-72
2022/09/01 08:41:02;;;;;;;6.38;1.80;;;18.90;99.90;;;;;;5049522;28;20052;-74
2022/09/01 08:43:31;;;;;;;4.18;1.30;;;19.00;99.90;;;;;;5045237;28;20043;-75
2022/09/01 08:46:01;;;;;;;3.55;1.23;;;19.10;99.90;;;;;;5042687;28;20057;-75
2022/09/01 08:48:36;;;;;;;7.40;1.30;;;19.10;99.90;;;;;;5068225;28;20053;-75
2022/09/01 08:51:13;;;;;;;2.92;1.20;;;19.20;99.90;;;;;;5048303;28;20047;-76
2022/09/01 08:54:16;;;;;;;8.02;1.65;;;19.30;99.90;;;;;;5067368;28;20041;-76
2022/09/01 08:56:42;;;;;;;3.65;1.33;;;19.30;99.90;;;;;;5063545;28;20083;-76
2022/09/01 08:59:09;;;;;;;5.93;1.42;;;19.40;99.90;;;;;;5067723;28;20076;-77
2022/09/01 09:02:02;;;;;;;3.97;1.20;;;19.50;99.90;;;;;;5068561;28;20040;-78
2022/09/01 09:04:55;;;;;;;3.65;1.83;;;19.60;99.90;;;;;;5061164;28;20483;-76
2022/09/01 09:07:55;;;;;;;5.22;1.38;;;19.70;99.90;;;;;;5063214;28;20091;-75
2022/09/01 09:10:31;;;;;;;6.28;1.10;;;19.80;99.90;;;;;;5048775;28;20545;-78
2022/09/01 09:13:15;;;;;;;5.35;1.33;;;19.80;99.90;;;;;;5058934;28;20040;-76
2022/09/01 09:15:58;;;;;;;4.72;1.00;;;19.90;99.90;;;;;;5069235;28;20108;-76
2022/09/01 09:18:47;;;;;;;2.50;1.20;;;20.00;99.90;;;;;;5076119;28;20131;-76
2022/09/01 09:21:31;;;;;;;1.83;1.00;;;20.00;99.90;;;;;;5039654;28;20431;-77
2022/09/01 09:24:51;;;;;;;2.60;0.90;;;20.10;99.70;;;;;;5051775;28;20048;-75
2022/09/01 09:27:34;;;;;;;1.63;0.88;;;20.20;99.70;;;;;;5069953;28;20755;-74
2022/09/01 09:30:04;;;;;;;3.83;1.00;;;20.20;97.90;;;;;;5069500;28;20093;-75
2022/09/01 09:32:49;;;;;;;4.68;1.15;;;20.30;98.40;;;;;;5065299;28;20604;-75
2022/09/01 09:35:22;;;;;;;2.92;1.02;;;20.40;98.80;;;;;;5065346;28;20056;-75
2022/09/01 09:37:49;;;;;;;3.28;1.10;;;20.50;99.10;;;;;;5068886;28;20036;-75
2022/09/01 09:40:25;;;;;;;3.92;1.00;;;20.50;98.70;;;;;;5065958;28;20102;-76
2022/09/01 09:42:54;;;;;;;2.47;1.03;;;20.50;98.40;;;;;;5050006;28;20044;-75
2022/09/01 09:45:24;;;;;;;2.88;1.00;;;20.60;95.30;;;;;;5050346;28;20704;-74
2022/09/01 09:47:52;;;;;;;3.70;0.95;;;20.60;95.70;;;;;;5066205;28;20498;-76
2022/09/01 09:50:39;;;;;;;4.25;1.10;;;20.70;98.00;;;;;;5066070;28;20045;-81
2022/09/01 09:53:19;;;;;;;1.60;0.93;;;20.80;96.60;;;;;;5066398;28;20040;-77
2022/09/01 09:55:58;;;;;;;3.72;1.20;;;20.80;96.40;;;;;;5062930;28;20056;-78
2022/09/01 09:58:33;;;;;;;4.38;1.40;;;20.90;94.70;;;;;;5061167;28;20040;-76
2022/09/01 10:01:14;;;;;;;1.90;1.00;;;21.00;95.10;;;;;;5068858;28;20055;-79
2022/09/01 10:03:49;;;;;;;3.10;0.90;;;21.10;94.10;;;;;;5067705;28;20040;-78
2022/09/01 10:06:36;;;;;;;3.65;1.05;;;21.10;94.10;;;;;;5064384;28;20049;-76
2022/09/01 10:09:05;;;;;;;2.75;1.08;;;21.20;92.10;;;;;;5067488;28;20111;-76
2022/09/01 10:11:43;;;;;;;2.40;0.98;;;21.30;91.10;;;;;;5046452;28;20048;-75
2022/09/01 10:14:22;;;;;;;3.63;1.10;;;21.40;89.80;;;;;;5048334;28;20056;-82
2022/09/01 10:17:02;;;;;;;3.53;1.15;;;21.50;83.60;;;;;;5066966;28;20045;-81
2022/09/01 10:19:32;;;;;;;1.58;0.80;;;21.50;83.40;;;;;;5051290;28;20040;-76
2022/09/01 10:21:58;;;;;;;2.05;0.80;;;21.60;80.00;;;;;;5050326;28;20429;-79
2022/09/01 10:24:37;;;;;;;3.87;1.00;;;21.60;85.20;;;;;;5048506;28;20471;-80
2022/09/01 10:27:18;;;;;;;2.65;0.95;;;21.60;86.20;;;;;;5049142;28;20314;-79
2022/09/01 10:29:49;;;;;;;3.80;0.90;;;21.60;82.80;;;;;;5068892;28;20388;-82
2022/09/01 10:32:21;;;;;;;5.72;1.17;;;21.60;81.60;;;;;;5048035;28;20341;-81
2022/09/01 10:34:47;;;;;;;4.28;1.00;;;21.70;82.50;;;;;;5048512;28;20043;-81
2022/09/01 10:37:14;;;;;;;3.95;0.98;;;21.80;86.20;;;;;;5066049;28;20043;-79
2022/09/01 10:40:17;;;;;;;3.27;1.07;;;21.90;76.00;;;;;;5067078;28;20059;-80
2022/09/01 10:42:46;;;;;;;2.70;0.90;;;21.90;79.00;;;;;;5066371;28;20055;-76
2022/09/01 10:45:39;;;;;;;1.63;0.90;;;22.00;80.90;;;;;;5062596;28;20383;-79
2022/09/01 10:48:19;;;;;;;1.75;0.90;;;22.10;78.50;;;;;;5059483;28;20048;-79
2022/09/01 10:51:13;;;;;;;5.68;1.05;;;22.30;76.40;;;;;;5068025;28;20055;-78
2022/09/01 10:53:41;;;;;;;3.08;1.00;;;22.30;70.90;;;;;;5047373;28;20048;-77
2022/09/01 10:56:26;;;;;;;6.57;1.20;;;22.20;75.40;;;;;;5065346;28;20583;-79
2022/09/01 10:59:08;;;;;;;1.50;0.90;;;22.30;75.80;;;;;;5051288;28;20055;-79
2022/09/01 11:01:40;;;;;;;1.10;0.80;;;22.40;69.80;;;;;;5046568;28;20052;-82
2022/09/01 11:04:08;;;;;;;1.13;0.90;;;22.50;71.00;;;;;;5044705;28;20059;-78
2022/09/01 11:06:40;;;;;;;2.08;0.80;;;22.50;68.50;;;;;;5050817;28;20040;-78
2022/09/01 11:09:27;;;;;;;3.65;1.10;;;22.50;68.60;;;;;;5067314;28;20053;-78
2022/09/01 11:12:09;;;;;;;2.90;1.10;;;22.60;70.60;;;;;;5044316;28;20482;-77
2022/09/01 11:14:56;;;;;;;4.25;1.42;;;22.70;68.20;;;;;;5063967;28;20041;-78
2022/09/01 11:17:26;;;;;;;14.27;1.98;;;22.70;66.00;;;;;;5065538;28;20036;-79
2022/09/01 11:20:09;;;;;;;29.30;3.80;;;22.50;67.70;;;;;;5060502;28;20166;-75
2022/09/01 11:22:39;;;;;;;34.35;4.80;;;22.60;73.80;;;;;;5050282;28;20058;-76
2022/09/01 11:25:26;;;;;;;4.82;1.20;;;22.70;71.50;;;;;;5061864;28;20098;-77
2022/09/01 11:27:51;;;;;;;6.07;1.10;;;22.80;63.80;;;;;;5067591;28;20372;-77
2022/09/01 11:30:20;;;;;;;1.58;0.90;;;22.90;61.40;;;;;;5065134;28;20055;-78
2022/09/01 11:32:50;;;;;;;3.17;1.10;;;22.90;60.40;;;;;;5064038;28;20071;-81
2022/09/01 11:35:22;;;;;;;2.97;1.15;;;22.90;59.60;;;;;;5045300;28;20119;-81
2022/09/01 11:37:49;;;;;;;3.65;1.10;;;22.90;60.60;;;;;;5063911;28;20047;-79
2022/09/01 11:40:29;;;;;;;;;;;22.80;61.00;;;;;;5049162;28;20044;-79
2022/09/01 11:42:56;;;;;;;2.13;0.90;;;22.80;60.60;;;;;;5047707;28;19920;-80
2022/09/01 11:45:30;;;;;;;1.40;1.00;;;22.60;61.40;;;;;;5039620;28;20461;-78
2022/09/01 11:48:08;;;;;;;1.45;0.80;;;22.50;59.80;;;;;;5046064;28;20044;-78
2022/09/01 11:50:39;;;;;;;3.08;0.98;;;22.40;60.90;;;;;;5050478;28;20033;-78
2022/09/01 11:53:14;;;;;;;5.95;0.93;;;22.40;62.80;;;;;;5057827;28;20537;-74
2022/09/01 11:55:44;;;;;;;2.40;0.88;;;22.60;60.30;;;;;;5056666;28;20044;-76
2022/09/01 11:58:12;;;;;;;2.92;1.10;;;22.80;59.50;;;;;;5062789;28;20044;-76
2022/09/01 12:00:41;;;;;;;1.70;0.82;;;22.90;58.60;;;;;;5070958;28;20090;-77
2022/09/01 12:03:28;;;;;;;1.33;1.00;;;22.90;56.50;;;;;;5069044;28;20491;-79
2022/09/01 12:05:59;;;;;;;2.05;0.80;;;23.10;58.00;;;;;;5038761;28;20056;-77
2022/09/01 12:08:26;;;;;;;2.17;0.90;;;23.40;57.80;;;;;;5046498;28;20056;-79
2022/09/01 12:11:07;;;;;;;1.52;1.00;;;23.50;57.30;;;;;;5046990;28;20145;-79
2022/09/01 12:13:34;;;;;;;2.13;0.90;;;23.50;55.10;;;;;;5067098;28;20075;-79
2022/09/01 12:16:06;;;;;;;2.67;0.82;;;23.40;55.80;;;;;;5062492;28;20037;-77
2022/09/01 12:18:43;;;;;;;3.35;1.00;;;23.40;55.20;;;;;;5047395;28;20128;-77
2022/09/01 12:21:27;;;;;;;1.63;1.00;;;23.30;53.80;;;;;;5058370;28;20049;-79
2022/09/01 12:24:08;;;;;;;2.35;0.80;;;23.30;54.20;;;;;;5044211;28;20056;-78
2022/09/01 12:26:34;;;;;;;2.47;0.80;;;23.10;53.50;;;;;;5066881;28;20177;-77
2022/09/01 12:29:00;;;;;;;2.25;0.80;;;23.00;53.70;;;;;;5047402;28;20135;-79
2022/09/01 12:31:26;;;;;;;3.10;0.80;;;23.10;54.20;;;;;;5065728;28;20098;-78
2022/09/01 12:33:55;;;;;;;1.02;0.80;;;23.20;54.20;;;;;;5064937;28;20056;-80
2022/09/01 12:36:33;;;;;;;2.45;0.93;;;23.30;52.50;;;;;;5067171;28;20111;-78
2022/09/01 12:39:21;;;;;;;1.90;0.90;;;23.30;52.30;;;;;;5067042;28;20070;-82
2022/09/01 12:42:03;;;;;;;3.40;0.80;;;23.40;52.90;;;;;;5066072;28;20391;-81
2022/09/01 12:44:54;;;;;;;2.75;0.88;;;23.60;51.90;;;;;;5049872;28;20059;-79
2022/09/01 12:47:32;;;;;;;2.40;1.15;;;23.80;53.90;;;;;;5056150;28;20048;-81
2022/09/01 12:50:00;;;;;;;1.30;0.85;;;23.90;52.70;;;;;;5049659;28;20044;-77
2022/09/01 12:52:27;;;;;;;1.75;0.88;;;24.00;52.30;;;;;;5065719;28;20044;-77
2022/09/01 12:55:02;;;;;;;1.52;0.80;;;24.10;51.60;;;;;;5068141;28;20533;-76
2022/09/01 12:57:37;;;;;;;2.05;0.80;;;24.00;50.90;;;;;;5046236;28;20483;-77
2022/09/01 13:00:20;;;;;;;2.53;1.02;;;24.00;51.00;;;;;;5049231;28;20064;-78
2022/09/01 13:02:56;;;;;;;2.80;0.90;;;24.10;51.20;;;;;;5069951;28;20569;-77
2022/09/01 13:05:36;;;;;;;1.75;0.85;;;24.20;51.00;;;;;;5066455;28;20944;-78
2022/09/01 13:08:05;;;;;;;1.83;1.02;;;24.30;50.30;;;;;;5067798;28;20068;-73
2022/09/01 13:10:36;;;;;;;2.03;0.77;;;24.30;51.60;;;;;;5050131;28;20070;-77
2022/09/01 13:13:05;;;;;;;2.20;1.30;;;24.40;50.40;;;;;;5068493;28;20044;-76
2022/09/01 13:15:32;;;;;;;1.23;0.80;;;24.40;49.70;;;;;;5076588;28;20043;-75
2022/09/01 13:17:57;;;;;;;;;;;24.30;49.30;;;;;;5068472;28;20044;-78